^^
Station Historical Data
Daily Summary for August 16, 2017 Units:  Metric    English   Both
« Previous Day
Next Day »
Daily Weekly Monthly Yearly Custom
  High: Low: Average:
Temperature: 14.3 °C 6.9 °C 9.4 °C
Dew Point: 6.4 °C -1 °C 3 °C
Humidity: 89% 42% 66%
Wind Speed: 30.6km/h 0km/h 15km/h
Wind Gust: 35.4km/h - -
Wind- - South
Pressure: 1021.2 hPa 1014.8 hPa -
Precipitation: 0 mm    
Historical Graphs
 
 
Tabular Data for August 16, 2017
Time Temperature Dew Point Pressure Wind Wind Speed Wind Gust Humidity Rainfall Rate (Hourly) solar Conditions
00:00 9.8 °C -1 °C 1015.8 hPa Calm     47% 0 mm 0.0 W/m2
00:15 9.5 °C -0.4 °C 1015.8 hPa SSW 9.7 km/h 12.9 km/h 50% 0 mm 0.0 W/m2
00:21 9.4 °C -0.2 °C 1015.5 hPa SSW 11.1 km/h 12.9 km/h 51% 0 mm 0.0 W/m2
00:26 9.5 °C -0.1 °C 1015.8 hPa SSW 9.7 km/h 12.9 km/h 51% 0 mm 0.0 W/m2
00:31 9.4 °C -0.2 °C 1015.8 hPa SSW 9.7 km/h 9.7 km/h 51% 0 mm 0.0 W/m2
00:36 9.3 °C -0.3 °C 1015.8 hPa SSW 6.4 km/h 9.7 km/h 51% 0 mm 0.0 W/m2
00:41 9.3 °C -0.1 °C 1015.8 hPa SSW 6.4 km/h 8 km/h 52% 0 mm 0.0 W/m2
00:51 9.2 °C -0.4 °C 1015.5 hPa Calm     51% 0 mm 0.0 W/m2
00:57 9 °C -0.3 °C 1015.5 hPa Calm     52% 0 mm 0.0 W/m2
01:02 8.9 °C -0.4 °C 1015.5 hPa Calm     52% 0 mm 0.0 W/m2
01:07 8.8 °C -0.3 °C 1015.8 hPa SSW 1.4 km/h 1.6 km/h 53% 0 mm 0.0 W/m2
01:17 9.2 °C 0.1 °C 1015.8 hPa SSW 3.2 km/h 8 km/h 53% 0 mm 0.0 W/m2
01:22 9.2 °C -0.1 °C 1015.8 hPa SSW 6.4 km/h 8 km/h 52% 0 mm 0.0 W/m2
01:27 9.1 °C 0 °C 1015.8 hPa SSW 6.4 km/h 9.7 km/h 53% 0 mm 0.0 W/m2
01:32 8.9 °C 0.1 °C 1015.8 hPa SSW 4.7 km/h 9.7 km/h 54% 0 mm 0.0 W/m2
01:37 8.9 °C 0.3 °C 1015.8 hPa SSW 6.4 km/h 8 km/h 55% 0 mm 0.0 W/m2
01:47 8.9 °C 0.8 °C 1015.8 hPa SSW 9.7 km/h 12.9 km/h 57% 0 mm 0.0 W/m2
01:52 9.1 °C 2 °C 1015.8 hPa SSW 9.7 km/h 14.5 km/h 61% 0 mm 0.0 W/m2
01:57 9.2 °C 1.4 °C 1015.5 hPa SSW 11.1 km/h 14.5 km/h 58% 0 mm 0.0 W/m2
02:07 9.2 °C 1.8 °C 1015.5 hPa SSW 11.1 km/h 12.9 km/h 60% 0 mm 0.0 W/m2
02:12 9.1 °C 1.7 °C 1015.1 hPa SSW 7.9 km/h 12.9 km/h 60% 0 mm 0.0 W/m2
02:22 8.9 °C 2 °C 1015.1 hPa SSW 7.9 km/h 11.3 km/h 62% 0 mm 0.0 W/m2
02:27 8.7 °C 1.8 °C 1015.1 hPa SSW 6.4 km/h 8 km/h 62% 0 mm 0.0 W/m2
02:32 8.6 °C 2 °C 1015.1 hPa SSW 7.9 km/h 9.7 km/h 63% 0 mm 0.0 W/m2
02:37 8.5 °C 1.9 °C 1015.1 hPa SSW 7.9 km/h 8 km/h 63% 0 mm 0.0 W/m2
02:47 8.3 °C 2.1 °C 1015.1 hPa SSW 13 km/h 13 km/h 65% 0 mm 0.0 W/m2
02:53 8.3 °C 2.1 °C 1015.1 hPa SSW 9.7 km/h 14.5 km/h 65% 0 mm 0.0 W/m2
03:03 8.4 °C 2.6 °C 1015.1 hPa SSW 17.7 km/h 19.3 km/h 67% 0 mm 0.0 W/m2
03:13 8.3 °C 2.7 °C 1014.8 hPa SSW 11.1 km/h 17.7 km/h 68% 0 mm 0.0 W/m2
03:18 8.2 °C 3.3 °C 1015.1 hPa SSW 17.7 km/h 24.1 km/h 71% 0 mm 0.0 W/m2
03:28 8.2 °C 3.8 °C 1015.1 hPa SSW 11.1 km/h 19.3 km/h 74% 0 mm 0.0 W/m2
03:33 8.1 °C 3.7 °C 1015.1 hPa SSW 14.3 km/h 17.7 km/h 74% 0 mm 0.0 W/m2
03:38 8.1 °C 3.7 °C 1015.1 hPa SSW 13 km/h 17.7 km/h 74% 0 mm 0.0 W/m2
03:43 8 °C 3.6 °C 1015.5 hPa SSW 13 km/h 16.1 km/h 74% 0 mm 0.0 W/m2
03:53 7.9 °C 3.6 °C 1015.8 hPa SSW 11.1 km/h 19.3 km/h 74% 0 mm 0.0 W/m2
03:58 7.8 °C 3.8 °C 1015.5 hPa SSW 11.1 km/h 16.1 km/h 76% 0 mm 0.0 W/m2
04:08 7.6 °C 4.2 °C 1015.5 hPa SSW 17.7 km/h 17.7 km/h 79% 0 mm 0.0 W/m2
04:18 7.4 °C 4.2 °C 1015.8 hPa SSW 11.1 km/h 12.9 km/h 80% 0 mm 0.0 W/m2
04:23 7.4 °C 4.4 °C 1015.8 hPa SSW 7.9 km/h 11.3 km/h 81% 0 mm 0.0 W/m2
04:33 7.3 °C 4.3 °C 1015.8 hPa SSW 11.1 km/h 12.9 km/h 81% 0 mm 0.0 W/m2
04:38 7.3 °C 4.4 °C 1015.5 hPa SSW 9.7 km/h 12.9 km/h 82% 0 mm 0.0 W/m2
04:48 7.2 °C 4.7 °C 1015.5 hPa SSW 7.9 km/h 11.3 km/h 84% 0 mm 0.0 W/m2
04:54 7.1 °C 4.6 °C 1015.5 hPa SSW 6.4 km/h 9.7 km/h 84% 0 mm 0.0 W/m2
05:04 6.9 °C 4.7 °C 1015.8 hPa SSW 11.1 km/h 12.9 km/h 86% 0 mm 0.0 W/m2
05:09 6.9 °C 4.7 °C 1016.1 hPa SSW 13 km/h 14.5 km/h 86% 0 mm 0.0 W/m2
05:14 6.9 °C 4.9 °C 1016.1 hPa SSW 13 km/h 16.1 km/h 87% 0 mm 0.0 W/m2
05:19 6.9 °C 4.9 °C 1016.1 hPa SSW 11.1 km/h 17.7 km/h 87% 0 mm 0.0 W/m2
05:24 6.9 °C 4.9 °C 1016.1 hPa SSW 16.3 km/h 19.3 km/h 87% 0 mm 0.0 W/m2
05:34 6.9 °C 5.1 °C 1016.5 hPa SSW 11.1 km/h 16.1 km/h 88% 0 mm 0.0 W/m2
05:44 7.2 °C 5.5 °C 1016.8 hPa SSW 17.7 km/h 19.3 km/h 89% 0 mm 0.0 W/m2
05:54 7.7 °C 5.8 °C 1016.8 hPa SSW 17.7 km/h 22.5 km/h 88% 0 mm 0.0 W/m2
06:04 8 °C 5.8 °C 1016.8 hPa SSW 16.3 km/h 20.9 km/h 86% 0 mm 0.0 W/m2
06:10 8.1 °C 5.7 °C 1016.8 hPa SSW 14.3 km/h 20.9 km/h 85% 0 mm 0.0 W/m2
06:19 8.2 °C 5.7 °C 1016.8 hPa SSW 11.1 km/h 19.3 km/h 84% 0 mm 0.0 W/m2
06:24 8.2 °C 5.5 °C 1016.8 hPa SSW 13 km/h 14.5 km/h 83% 0 mm 5.0 W/m2
06:29 8.3 °C 5.6 °C 1016.8 hPa SSW 16.3 km/h 17.7 km/h 83% 0 mm 12.0 W/m2
06:45 8.7 °C 5.4 °C 1016.8 hPa SSW 16.3 km/h 22.5 km/h 80% 0 mm 26.0 W/m2
06:51 8.8 °C 5.5 °C 1016.8 hPa SSW 16.3 km/h 19.3 km/h 80% 0 mm 35.0 W/m2
06:56 8.8 °C 5.5 °C 1017.2 hPa SSW 11.1 km/h 20.9 km/h 80% 0 mm 40.0 W/m2
07:10 9.3 °C 5.7 °C 1017.2 hPa SSW 17.7 km/h 19.3 km/h 78% 0 mm 153.0 W/m2
07:20 9.7 °C 5.9 °C 1017.5 hPa SSW 20.9 km/h 22.5 km/h 77% 0 mm 111.0 W/m2
07:30 9.8 °C 6 °C 1017.5 hPa SSW 14.3 km/h 17.7 km/h 77% 0 mm 120.0 W/m2
07:35 9.8 °C 6 °C 1017.5 hPa SSW 16.3 km/h 17.7 km/h 77% 0 mm 146.0 W/m2
07:40 9.8 °C 6.1 °C 1017.5 hPa SSW 13 km/h 19.3 km/h 78% 0 mm 241.0 W/m2
09:30 11.7 °C 5.6 °C 1017.8 hPa SSW 17.7 km/h 17.7 km/h 66% 0 mm 278.0 W/m2
09:45 11.5 °C 6.2 °C 1017.5 hPa SSW 14.3 km/h 17.7 km/h 70% 0 mm 251.0 W/m2
10:00 11.9 °C 6.4 °C 1017.5 hPa SSW 16.3 km/h 20.9 km/h 69% 0 mm 795.0 W/m2
10:16 12.3 °C 5.9 °C 1017.5 hPa SSW 11.1 km/h 19.3 km/h 65% 0 mm 364.0 W/m2
10:40 12.5 °C 5.4 °C 1017.5 hPa SSW 20.9 km/h 27.4 km/h 62% 0 mm 308.0 W/m2
11:06 12.4 °C 5.1 °C 1017.5 hPa SSW 17.7 km/h 24.1 km/h 61% 0 mm 406.0 W/m2
11:21 12.6 °C 5.5 °C 1017.2 hPa SSW 16.3 km/h 25.7 km/h 62% 0 mm 898.0 W/m2
11:36 12.8 °C 4.7 °C 1017.5 hPa SSW 22.7 km/h 27.4 km/h 58% 0 mm 308.0 W/m2
11:50 12.4 °C 4.4 °C 1017.5 hPa SSW 22.7 km/h 29 km/h 58% 0 mm 283.0 W/m2
12:04 12.8 °C 4.7 °C 1017.5 hPa SSW 16.3 km/h 25.7 km/h 58% 0 mm 336.0 W/m2
12:16 12.7 °C 4.4 °C 1017.2 hPa SSW 17.7 km/h 25.7 km/h 57% 0 mm 239.0 W/m2
12:31 13 °C 3.6 °C 1017.2 hPa SSW 24.1 km/h 25.7 km/h 53% 0 mm 840.0 W/m2
12:46 13.5 °C 3.8 °C 1016.8 hPa South 24.1 km/h 32.2 km/h 52% 0 mm 842.0 W/m2
13:00 13.3 °C 4.2 °C 1016.8 hPa SSW 19.5 km/h 30.6 km/h 54% 0 mm 691.0 W/m2
13:22 13.7 °C 3.5 °C 1016.5 hPa SSW 14.3 km/h 27.4 km/h 50% 0 mm 645.0 W/m2
13:47 14.3 °C 2.2 °C 1016.5 hPa South 17.7 km/h 22.5 km/h 44% 0 mm 621.0 W/m2
14:32 14.3 °C 1.6 °C 1016.5 hPa South 24.1 km/h 27.4 km/h 42% 0 mm 499.0 W/m2
14:57 14.1 °C 1.4 °C 1016.5 hPa SSW 19.5 km/h 30.6 km/h 42% 0 mm 436.0 W/m2
15:28 14.1 °C 1.4 °C 1016.8 hPa SSW 25.9 km/h 30.6 km/h 42% 0 mm 350.0 W/m2
15:58 13.8 °C 1.4 °C 1016.8 hPa South 16.3 km/h 25.7 km/h 43% 0 mm 257.0 W/m2
16:14 13.8 °C 1.4 °C 1016.8 hPa SSW 22.7 km/h 25.7 km/h 43% 0 mm 207.0 W/m2
16:28 13.4 °C 1.4 °C 1016.8 hPa SSW 20.9 km/h 25.7 km/h 44% 0 mm 146.0 W/m2
16:43 13.3 °C 1.6 °C 1016.8 hPa South 25.9 km/h 25.9 km/h 45% 0 mm 91.0 W/m2
16:58 12.9 °C 1.2 °C 1016.8 hPa SSW 22.7 km/h 25.7 km/h 45% 0 mm 53.0 W/m2
17:13 12.7 °C 1.1 °C 1016.8 hPa South 19.5 km/h 25.7 km/h 45% 0 mm 16.0 W/m2
18:13 11.6 °C 2.1 °C 1017.2 hPa SSW 30.6 km/h 33.8 km/h 52% 0 mm 0.0 W/m2
18:59 10.8 °C 3.8 °C 1018.2 hPa South 25.9 km/h 33.8 km/h 62% 0 mm 0.0 W/m2
20:13 9.4 °C 3.2 °C 1019.5 hPa SSE 25.9 km/h 32.2 km/h 65% 0 mm 0.0 W/m2
20:25 9.4 °C 3.2 °C 1019.9 hPa SSE 22.7 km/h 30.6 km/h 65% 0 mm 0.0 W/m2
20:40 9.1 °C 3.5 °C 1019.9 hPa South 28.8 km/h 35.4 km/h 68% 0 mm 0.0 W/m2
21:08 8.8 °C 3.6 °C 1020.5 hPa SSE 19.5 km/h 29 km/h 70% 0 mm 0.0 W/m2
21:19 8.7 °C 3.5 °C 1020.5 hPa SSE 20.9 km/h 27.4 km/h 70% 0 mm 0.0 W/m2
21:32 8.6 °C 3 °C 1020.9 hPa SSE 14.3 km/h 33.8 km/h 68% 0 mm 0.0 W/m2
21:39 8.6 °C 2.4 °C 1020.9 hPa SSE 24.1 km/h 27.4 km/h 65% 0 mm 0.0 W/m2
21:45 8.6 °C 2.4 °C 1020.9 hPa South 30.6 km/h 30.6 km/h 65% 0 mm 0.0 W/m2
21:55 8.5 °C 2.5 °C 1020.9 hPa SSE 20.9 km/h 29 km/h 66% 0 mm 0.0 W/m2
22:09 8.3 °C 2.5 °C 1020.9 hPa South 19.5 km/h 22.5 km/h 67% 0 mm 0.0 W/m2
22:15 8.3 °C 2.5 °C 1020.9 hPa South 14.3 km/h 25.7 km/h 67% 0 mm 0.0 W/m2
22:24 8.1 °C 2.3 °C 1020.9 hPa South 16.3 km/h 25.7 km/h 67% 0 mm 0.0 W/m2
22:29 8.1 °C 2.3 °C 1020.9 hPa South 9.7 km/h 24.1 km/h 67% 0 mm 0.0 W/m2
22:35 7.9 °C 2.4 °C 1020.9 hPa SSE 25.9 km/h 30.6 km/h 68% 0 mm 0.0 W/m2
22:45 7.8 °C 2.3 °C 1021.2 hPa SSE 20.9 km/h 27.4 km/h 68% 0 mm 0.0 W/m2
22:54 7.7 °C 2 °C 1021.2 hPa South 17.7 km/h 24.1 km/h 67% 0 mm 0.0 W/m2
23:00 7.7 °C 2.2 °C 1021.2 hPa SSE 24.1 km/h 24.1 km/h 68% 0 mm 0.0 W/m2
23:05 7.6 °C 1.9 °C 1021.2 hPa SSE 20.9 km/h 30.6 km/h 67% 0 mm 0.0 W/m2
23:10 7.6 °C 1.9 °C 1021.2 hPa SSE 16.3 km/h 22.5 km/h 67% 0 mm 0.0 W/m2
23:15 7.5 °C 1.8 °C 1020.9 hPa SSE 17.7 km/h 27.4 km/h 67% 0 mm 0.0 W/m2
23:20 7.4 °C 1.7 °C 1021.2 hPa SSE 14.3 km/h 22.5 km/h 67% 0 mm 0.0 W/m2
23:36 7.2 °C 1.7 °C 1021.2 hPa SSE 17.7 km/h 22.5 km/h 68% 0 mm 0.0 W/m2
23:41 7.2 °C 1.7 °C 1021.2 hPa SSE 16.3 km/h 24.1 km/h 68% 0 mm 0.0 W/m2
23:50 7.1 °C 1.8 °C 1021.2 hPa SSE 20.9 km/h 22.5 km/h 69% 0 mm 0.0 W/m2
23:55 7 °C 1.7 °C 1021.2 hPa SSE 16.3 km/h 20.9 km/h 69% 0 mm 0.0 W/m2
Canyon Roadhouse, Fishriver Canyon, Namibia
Compliments of Weather Underground - 2.25 mb